sensor_id;sensor_type;location;lat;lon;timestamp;P1;durP1;ratioP1;P2;durP2;ratioP2
9880;SDS011;4979;51.014;6.678;2023-12-04T00:00:32;12.88;;;8.75;;
9880;SDS011;4979;51.014;6.678;2023-12-04T00:02:57;14.32;;;8.80;;
9880;SDS011;4979;51.014;6.678;2023-12-04T00:05:23;14.75;;;8.80;;
9880;SDS011;4979;51.014;6.678;2023-12-04T00:07:49;15.95;;;8.95;;
9880;SDS011;4979;51.014;6.678;2023-12-04T00:10:14;14.82;;;9.00;;
9880;SDS011;4979;51.014;6.678;2023-12-04T00:12:40;15.25;;;8.70;;
9880;SDS011;4979;51.014;6.678;2023-12-04T00:15:05;15.07;;;9.32;;
9880;SDS011;4979;51.014;6.678;2023-12-04T00:17:31;13.95;;;8.82;;
9880;SDS011;4979;51.014;6.678;2023-12-04T00:19:57;15.15;;;9.13;;
9880;SDS011;4979;51.014;6.678;2023-12-04T00:22:22;15.27;;;9.52;;
9880;SDS011;4979;51.014;6.678;2023-12-04T00:24:48;14.98;;;8.68;;
9880;SDS011;4979;51.014;6.678;2023-12-04T00:27:14;15.55;;;9.73;;
9880;SDS011;4979;51.014;6.678;2023-12-04T00:29:39;15.90;;;8.75;;
9880;SDS011;4979;51.014;6.678;2023-12-04T00:32:05;15.68;;;8.95;;
9880;SDS011;4979;51.014;6.678;2023-12-04T00:34:30;15.02;;;8.93;;
9880;SDS011;4979;51.014;6.678;2023-12-04T00:36:56;12.75;;;8.27;;
9880;SDS011;4979;51.014;6.678;2023-12-04T00:39:21;13.68;;;8.32;;
9880;SDS011;4979;51.014;6.678;2023-12-04T00:41:47;14.77;;;8.32;;
9880;SDS011;4979;51.014;6.678;2023-12-04T00:44:13;15.35;;;8.85;;
9880;SDS011;4979;51.014;6.678;2023-12-04T00:46:38;14.50;;;8.95;;
9880;SDS011;4979;51.014;6.678;2023-12-04T00:49:04;11.98;;;7.82;;
9880;SDS011;4979;51.014;6.678;2023-12-04T00:51:36;14.95;;;8.27;;
9880;SDS011;4979;51.014;6.678;2023-12-04T00:54:02;13.75;;;8.07;;
9880;SDS011;4979;51.014;6.678;2023-12-04T00:56:28;13.20;;;8.07;;
9880;SDS011;4979;51.014;6.678;2023-12-04T00:58:53;15.40;;;8.40;;
9880;SDS011;4979;51.014;6.678;2023-12-04T01:01:19;13.40;;;7.90;;
9880;SDS011;4979;51.014;6.678;2023-12-04T01:03:44;14.13;;;8.00;;
9880;SDS011;4979;51.014;6.678;2023-12-04T01:06:19;12.70;;;8.13;;
9880;SDS011;4979;51.014;6.678;2023-12-04T01:08:46;13.68;;;8.77;;
9880;SDS011;4979;51.014;6.678;2023-12-04T01:11:12;15.82;;;8.77;;
9880;SDS011;4979;51.014;6.678;2023-12-04T01:13:39;13.82;;;8.15;;
9880;SDS011;4979;51.014;6.678;2023-12-04T01:16:05;15.40;;;8.55;;
9880;SDS011;4979;51.014;6.678;2023-12-04T01:18:31;12.38;;;7.40;;
9880;SDS011;4979;51.014;6.678;2023-12-04T01:20:57;12.75;;;7.90;;
9880;SDS011;4979;51.014;6.678;2023-12-04T01:23:22;13.68;;;8.25;;
9880;SDS011;4979;51.014;6.678;2023-12-04T01:25:48;14.02;;;8.77;;
9880;SDS011;4979;51.014;6.678;2023-12-04T01:28:13;12.05;;;8.13;;
9880;SDS011;4979;51.014;6.678;2023-12-04T01:30:39;13.40;;;8.52;;
9880;SDS011;4979;51.014;6.678;2023-12-04T01:33:05;12.55;;;8.82;;
9880;SDS011;4979;51.014;6.678;2023-12-04T01:35:30;13.27;;;8.50;;
9880;SDS011;4979;51.014;6.678;2023-12-04T01:37:56;15.55;;;8.55;;
9880;SDS011;4979;51.014;6.678;2023-12-04T01:40:21;12.98;;;8.27;;
9880;SDS011;4979;51.014;6.678;2023-12-04T01:42:47;12.57;;;7.80;;
9880;SDS011;4979;51.014;6.678;2023-12-04T01:45:12;14.45;;;8.52;;
9880;SDS011;4979;51.014;6.678;2023-12-04T01:47:38;12.18;;;7.82;;
9880;SDS011;4979;51.014;6.678;2023-12-04T01:50:04;11.90;;;7.82;;
9880;SDS011;4979;51.014;6.678;2023-12-04T01:52:31;16.80;;;8.82;;
9880;SDS011;4979;51.014;6.678;2023-12-04T01:54:57;13.23;;;8.05;;
9880;SDS011;4979;51.014;6.678;2023-12-04T01:57:23;13.60;;;7.53;;
9880;SDS011;4979;51.014;6.678;2023-12-04T01:59:48;12.30;;;7.85;;
9880;SDS011;4979;51.014;6.678;2023-12-04T02:02:14;14.13;;;8.18;;
9880;SDS011;4979;51.014;6.678;2023-12-04T02:04:39;12.45;;;7.85;;
9880;SDS011;4979;51.014;6.678;2023-12-04T02:07:05;12.57;;;7.63;;
9880;SDS011;4979;51.014;6.678;2023-12-04T02:09:31;13.52;;;7.60;;
9880;SDS011;4979;51.014;6.678;2023-12-04T02:11:57;13.27;;;7.78;;
9880;SDS011;4979;51.014;6.678;2023-12-04T02:14:24;14.43;;;8.15;;
9880;SDS011;4979;51.014;6.678;2023-12-04T02:16:50;13.93;;;8.35;;
9880;SDS011;4979;51.014;6.678;2023-12-04T02:19:17;13.52;;;7.72;;
9880;SDS011;4979;51.014;6.678;2023-12-04T02:21:42;13.75;;;8.52;;
9880;SDS011;4979;51.014;6.678;2023-12-04T02:24:08;14.82;;;8.82;;
9880;SDS011;4979;51.014;6.678;2023-12-04T02:26:44;12.48;;;8.05;;
9880;SDS011;4979;51.014;6.678;2023-12-04T02:29:21;13.02;;;7.90;;
9880;SDS011;4979;51.014;6.678;2023-12-04T02:31:54;13.73;;;7.85;;
9880;SDS011;4979;51.014;6.678;2023-12-04T02:34:21;12.45;;;7.55;;
9880;SDS011;4979;51.014;6.678;2023-12-04T02:36:48;12.57;;;7.82;;
9880;SDS011;4979;51.014;6.678;2023-12-04T02:39:15;11.95;;;8.15;;
9880;SDS011;4979;51.014;6.678;2023-12-04T02:41:40;11.80;;;7.40;;
9880;SDS011;4979;51.014;6.678;2023-12-04T02:44:06;13.82;;;7.30;;
9880;SDS011;4979;51.014;6.678;2023-12-04T02:46:31;11.68;;;7.60;;
9880;SDS011;4979;51.014;6.678;2023-12-04T02:48:57;11.70;;;6.75;;
9880;SDS011;4979;51.014;6.678;2023-12-04T02:51:22;11.07;;;7.43;;
9880;SDS011;4979;51.014;6.678;2023-12-04T02:53:51;10.43;;;7.68;;
9880;SDS011;4979;51.014;6.678;2023-12-04T02:56:16;13.40;;;7.88;;
9880;SDS011;4979;51.014;6.678;2023-12-04T02:58:42;14.77;;;8.45;;
9880;SDS011;4979;51.014;6.678;2023-12-04T03:01:08;12.50;;;7.57;;
9880;SDS011;4979;51.014;6.678;2023-12-04T03:03:33;13.20;;;8.10;;
9880;SDS011;4979;51.014;6.678;2023-12-04T03:05:59;11.98;;;7.10;;
9880;SDS011;4979;51.014;6.678;2023-12-04T03:08:24;12.55;;;8.07;;
9880;SDS011;4979;51.014;6.678;2023-12-04T03:10:50;12.40;;;7.15;;
9880;SDS011;4979;51.014;6.678;2023-12-04T03:13:15;10.70;;;7.10;;
9880;SDS011;4979;51.014;6.678;2023-12-04T03:15:41;13.18;;;7.82;;
9880;SDS011;4979;51.014;6.678;2023-12-04T03:18:06;11.80;;;7.25;;
9880;SDS011;4979;51.014;6.678;2023-12-04T03:20:32;12.80;;;7.72;;
9880;SDS011;4979;51.014;6.678;2023-12-04T03:22:58;14.73;;;8.00;;
9880;SDS011;4979;51.014;6.678;2023-12-04T03:25:24;13.65;;;8.00;;
9880;SDS011;4979;51.014;6.678;2023-12-04T03:27:49;11.93;;;7.78;;
9880;SDS011;4979;51.014;6.678;2023-12-04T03:30:15;10.80;;;7.00;;
9880;SDS011;4979;51.014;6.678;2023-12-04T03:32:41;12.52;;;7.68;;
9880;SDS011;4979;51.014;6.678;2023-12-04T03:35:07;13.23;;;7.65;;
9880;SDS011;4979;51.014;6.678;2023-12-04T03:37:32;14.55;;;8.23;;
9880;SDS011;4979;51.014;6.678;2023-12-04T03:39:58;12.35;;;8.20;;
9880;SDS011;4979;51.014;6.678;2023-12-04T03:42:24;13.38;;;8.07;;
9880;SDS011;4979;51.014;6.678;2023-12-04T03:44:49;14.38;;;8.00;;
9880;SDS011;4979;51.014;6.678;2023-12-04T03:47:15;12.43;;;8.15;;
9880;SDS011;4979;51.014;6.678;2023-12-04T03:49:40;13.65;;;8.15;;
9880;SDS011;4979;51.014;6.678;2023-12-04T03:52:06;15.95;;;7.93;;
9880;SDS011;4979;51.014;6.678;2023-12-04T03:54:31;13.35;;;7.95;;
9880;SDS011;4979;51.014;6.678;2023-12-04T03:56:57;13.90;;;7.97;;
9880;SDS011;4979;51.014;6.678;2023-12-04T03:59:22;14.00;;;8.13;;
9880;SDS011;4979;51.014;6.678;2023-12-04T04:01:48;17.85;;;8.90;;
9880;SDS011;4979;51.014;6.678;2023-12-04T04:04:13;15.45;;;9.00;;
9880;SDS011;4979;51.014;6.678;2023-12-04T04:06:39;12.18;;;7.82;;
9880;SDS011;4979;51.014;6.678;2023-12-04T04:09:05;14.25;;;8.20;;
9880;SDS011;4979;51.014;6.678;2023-12-04T04:11:30;11.98;;;6.75;;
9880;SDS011;4979;51.014;6.678;2023-12-04T04:13:56;12.48;;;7.97;;
9880;SDS011;4979;51.014;6.678;2023-12-04T04:16:22;16.63;;;8.52;;
9880;SDS011;4979;51.014;6.678;2023-12-04T04:18:47;14.02;;;8.90;;
9880;SDS011;4979;51.014;6.678;2023-12-04T04:21:13;13.60;;;7.72;;
9880;SDS011;4979;51.014;6.678;2023-12-04T04:23:38;14.05;;;8.15;;
9880;SDS011;4979;51.014;6.678;2023-12-04T04:26:04;12.65;;;8.05;;
9880;SDS011;4979;51.014;6.678;2023-12-04T04:28:30;14.13;;;8.45;;
9880;SDS011;4979;51.014;6.678;2023-12-04T04:30:55;13.00;;;7.63;;
9880;SDS011;4979;51.014;6.678;2023-12-04T04:33:21;14.25;;;8.55;;
9880;SDS011;4979;51.014;6.678;2023-12-04T04:35:46;12.77;;;7.80;;
9880;SDS011;4979;51.014;6.678;2023-12-04T04:38:12;13.27;;;8.27;;
9880;SDS011;4979;51.014;6.678;2023-12-04T04:40:37;16.05;;;8.25;;
9880;SDS011;4979;51.014;6.678;2023-12-04T04:43:07;14.68;;;8.02;;
9880;SDS011;4979;51.014;6.678;2023-12-04T04:45:33;13.30;;;7.68;;
9880;SDS011;4979;51.014;6.678;2023-12-04T04:47:58;10.35;;;7.45;;
9880;SDS011;4979;51.014;6.678;2023-12-04T04:50:24;13.57;;;7.88;;
9880;SDS011;4979;51.014;6.678;2023-12-04T04:52:49;13.65;;;8.70;;
9880;SDS011;4979;51.014;6.678;2023-12-04T04:55:15;16.83;;;8.98;;
9880;SDS011;4979;51.014;6.678;2023-12-04T04:57:40;12.27;;;8.65;;
9880;SDS011;4979;51.014;6.678;2023-12-04T05:00:06;12.32;;;7.63;;
9880;SDS011;4979;51.014;6.678;2023-12-04T05:02:32;16.05;;;8.32;;
9880;SDS011;4979;51.014;6.678;2023-12-04T05:04:57;13.38;;;8.57;;
9880;SDS011;4979;51.014;6.678;2023-12-04T05:07:25;13.95;;;8.68;;
9880;SDS011;4979;51.014;6.678;2023-12-04T05:09:50;13.13;;;7.82;;
9880;SDS011;4979;51.014;6.678;2023-12-04T05:12:16;14.45;;;8.80;;
9880;SDS011;4979;51.014;6.678;2023-12-04T05:14:41;12.20;;;7.88;;
9880;SDS011;4979;51.014;6.678;2023-12-04T05:17:07;20.33;;;8.30;;
9880;SDS011;4979;51.014;6.678;2023-12-04T05:19:32;14.15;;;7.43;;
9880;SDS011;4979;51.014;6.678;2023-12-04T05:21:58;13.10;;;8.27;;
9880;SDS011;4979;51.014;6.678;2023-12-04T05:24:23;12.40;;;7.40;;
9880;SDS011;4979;51.014;6.678;2023-12-04T05:26:49;11.25;;;8.32;;
9880;SDS011;4979;51.014;6.678;2023-12-04T05:29:14;16.73;;;8.07;;
9880;SDS011;4979;51.014;6.678;2023-12-04T05:31:40;16.40;;;8.25;;
9880;SDS011;4979;51.014;6.678;2023-12-04T05:34:06;15.32;;;9.27;;
9880;SDS011;4979;51.014;6.678;2023-12-04T05:36:31;14.20;;;8.43;;
9880;SDS011;4979;51.014;6.678;2023-12-04T05:38:57;11.00;;;7.80;;
9880;SDS011;4979;51.014;6.678;2023-12-04T05:41:22;15.00;;;9.68;;
9880;SDS011;4979;51.014;6.678;2023-12-04T05:43:48;14.27;;;8.23;;
9880;SDS011;4979;51.014;6.678;2023-12-04T05:46:13;14.70;;;8.23;;
9880;SDS011;4979;51.014;6.678;2023-12-04T05:48:39;15.77;;;8.80;;
9880;SDS011;4979;51.014;6.678;2023-12-04T05:51:04;14.57;;;8.60;;
9880;SDS011;4979;51.014;6.678;2023-12-04T05:53:30;15.02;;;8.63;;
9880;SDS011;4979;51.014;6.678;2023-12-04T05:55:56;12.73;;;7.85;;
9880;SDS011;4979;51.014;6.678;2023-12-04T05:58:21;13.80;;;7.85;;
9880;SDS011;4979;51.014;6.678;2023-12-04T06:00:47;13.18;;;8.63;;
9880;SDS011;4979;51.014;6.678;2023-12-04T06:03:12;18.88;;;9.30;;
9880;SDS011;4979;51.014;6.678;2023-12-04T06:05:38;15.73;;;8.55;;
9880;SDS011;4979;51.014;6.678;2023-12-04T06:08:03;14.00;;;8.60;;
9880;SDS011;4979;51.014;6.678;2023-12-04T06:10:29;15.10;;;9.20;;
9880;SDS011;4979;51.014;6.678;2023-12-04T06:12:55;22.70;;;11.07;;
9880;SDS011;4979;51.014;6.678;2023-12-04T06:15:20;15.60;;;9.38;;
9880;SDS011;4979;51.014;6.678;2023-12-04T06:17:46;16.88;;;9.48;;
9880;SDS011;4979;51.014;6.678;2023-12-04T06:20:11;21.20;;;10.98;;
9880;SDS011;4979;51.014;6.678;2023-12-04T06:22:37;15.52;;;9.60;;
9880;SDS011;4979;51.014;6.678;2023-12-04T06:25:03;16.23;;;9.65;;
9880;SDS011;4979;51.014;6.678;2023-12-04T06:27:30;16.52;;;9.68;;
9880;SDS011;4979;51.014;6.678;2023-12-04T06:29:56;14.25;;;8.60;;
9880;SDS011;4979;51.014;6.678;2023-12-04T06:32:23;17.92;;;9.13;;
9880;SDS011;4979;51.014;6.678;2023-12-04T06:34:48;21.77;;;12.73;;
9880;SDS011;4979;51.014;6.678;2023-12-04T06:37:14;18.50;;;10.65;;
9880;SDS011;4979;51.014;6.678;2023-12-04T06:39:40;14.15;;;8.88;;
9880;SDS011;4979;51.014;6.678;2023-12-04T06:42:06;14.70;;;9.45;;
9880;SDS011;4979;51.014;6.678;2023-12-04T06:44:33;15.77;;;8.80;;
9880;SDS011;4979;51.014;6.678;2023-12-04T06:46:59;17.77;;;10.63;;
9880;SDS011;4979;51.014;6.678;2023-12-04T06:49:30;17.58;;;8.98;;
9880;SDS011;4979;51.014;6.678;2023-12-04T06:52:01;12.55;;;8.45;;
9880;SDS011;4979;51.014;6.678;2023-12-04T06:54:28;16.67;;;8.98;;
9880;SDS011;4979;51.014;6.678;2023-12-04T06:56:54;21.42;;;12.30;;
9880;SDS011;4979;51.014;6.678;2023-12-04T06:59:19;14.82;;;8.98;;
9880;SDS011;4979;51.014;6.678;2023-12-04T07:01:45;19.38;;;10.63;;
9880;SDS011;4979;51.014;6.678;2023-12-04T07:04:11;16.98;;;9.95;;
9880;SDS011;4979;51.014;6.678;2023-12-04T07:06:38;14.23;;;9.07;;
9880;SDS011;4979;51.014;6.678;2023-12-04T07:09:05;15.48;;;10.65;;
9880;SDS011;4979;51.014;6.678;2023-12-04T07:11:34;14.60;;;9.13;;
9880;SDS011;4979;51.014;6.678;2023-12-04T07:13:59;12.82;;;8.05;;
9880;SDS011;4979;51.014;6.678;2023-12-04T07:16:25;13.43;;;8.45;;
9880;SDS011;4979;51.014;6.678;2023-12-04T07:18:50;15.65;;;9.80;;
9880;SDS011;4979;51.014;6.678;2023-12-04T07:21:16;15.85;;;10.20;;
9880;SDS011;4979;51.014;6.678;2023-12-04T07:23:41;16.23;;;8.93;;
9880;SDS011;4979;51.014;6.678;2023-12-04T07:26:07;13.98;;;8.48;;
9880;SDS011;4979;51.014;6.678;2023-12-04T07:28:33;14.73;;;8.65;;
9880;SDS011;4979;51.014;6.678;2023-12-04T07:30:59;12.95;;;8.77;;
9880;SDS011;4979;51.014;6.678;2023-12-04T07:33:26;15.20;;;10.23;;
9880;SDS011;4979;51.014;6.678;2023-12-04T07:35:52;22.33;;;11.38;;
9880;SDS011;4979;51.014;6.678;2023-12-04T07:38:18;16.73;;;10.30;;
9880;SDS011;4979;51.014;6.678;2023-12-04T07:40:44;19.02;;;10.95;;
9880;SDS011;4979;51.014;6.678;2023-12-04T07:43:10;15.23;;;10.05;;
9880;SDS011;4979;51.014;6.678;2023-12-04T07:45:36;17.58;;;10.45;;
9880;SDS011;4979;51.014;6.678;2023-12-04T07:48:02;18.10;;;10.77;;
9880;SDS011;4979;51.014;6.678;2023-12-04T07:50:28;18.83;;;10.38;;
9880;SDS011;4979;51.014;6.678;2023-12-04T07:52:54;26.20;;;9.68;;
9880;SDS011;4979;51.014;6.678;2023-12-04T07:55:20;19.35;;;10.57;;
9880;SDS011;4979;51.014;6.678;2023-12-04T07:57:45;22.55;;;12.07;;
9880;SDS011;4979;51.014;6.678;2023-12-04T08:00:12;15.43;;;9.52;;
9880;SDS011;4979;51.014;6.678;2023-12-04T08:02:39;22.77;;;11.55;;
9880;SDS011;4979;51.014;6.678;2023-12-04T08:05:04;19.90;;;10.35;;
9880;SDS011;4979;51.014;6.678;2023-12-04T08:07:30;16.05;;;9.68;;
9880;SDS011;4979;51.014;6.678;2023-12-04T08:09:55;18.95;;;10.68;;
9880;SDS011;4979;51.014;6.678;2023-12-04T08:12:21;14.05;;;9.55;;
9880;SDS011;4979;51.014;6.678;2023-12-04T08:14:46;14.90;;;9.50;;
9880;SDS011;4979;51.014;6.678;2023-12-04T08:17:12;14.48;;;9.45;;
9880;SDS011;4979;51.014;6.678;2023-12-04T08:19:38;24.48;;;10.55;;
9880;SDS011;4979;51.014;6.678;2023-12-04T08:22:03;17.73;;;11.00;;
9880;SDS011;4979;51.014;6.678;2023-12-04T08:24:29;16.83;;;10.70;;
9880;SDS011;4979;51.014;6.678;2023-12-04T08:26:56;20.48;;;9.90;;
9880;SDS011;4979;51.014;6.678;2023-12-04T08:29:22;18.30;;;10.73;;
9880;SDS011;4979;51.014;6.678;2023-12-04T08:31:47;20.60;;;10.13;;
9880;SDS011;4979;51.014;6.678;2023-12-04T08:34:13;17.75;;;10.13;;
9880;SDS011;4979;51.014;6.678;2023-12-04T08:36:38;16.42;;;10.75;;
9880;SDS011;4979;51.014;6.678;2023-12-04T08:39:04;15.65;;;9.50;;
9880;SDS011;4979;51.014;6.678;2023-12-04T08:41:30;18.33;;;10.45;;
9880;SDS011;4979;51.014;6.678;2023-12-04T08:43:55;22.65;;;10.85;;
9880;SDS011;4979;51.014;6.678;2023-12-04T08:46:21;15.18;;;10.23;;
9880;SDS011;4979;51.014;6.678;2023-12-04T08:48:47;18.02;;;9.82;;
9880;SDS011;4979;51.014;6.678;2023-12-04T08:51:16;17.10;;;10.05;;
9880;SDS011;4979;51.014;6.678;2023-12-04T08:53:42;19.05;;;10.55;;
9880;SDS011;4979;51.014;6.678;2023-12-04T08:56:08;17.23;;;10.10;;
9880;SDS011;4979;51.014;6.678;2023-12-04T08:58:34;23.40;;;11.80;;
9880;SDS011;4979;51.014;6.678;2023-12-04T09:00:59;21.00;;;10.73;;
9880;SDS011;4979;51.014;6.678;2023-12-04T09:03:25;14.70;;;9.27;;
9880;SDS011;4979;51.014;6.678;2023-12-04T09:05:50;14.80;;;9.40;;
9880;SDS011;4979;51.014;6.678;2023-12-04T09:08:17;17.35;;;10.00;;
9880;SDS011;4979;51.014;6.678;2023-12-04T09:10:44;20.23;;;10.70;;
9880;SDS011;4979;51.014;6.678;2023-12-04T09:13:10;17.80;;;9.88;;
9880;SDS011;4979;51.014;6.678;2023-12-04T09:15:36;15.25;;;9.90;;
9880;SDS011;4979;51.014;6.678;2023-12-04T09:18:02;15.40;;;9.23;;
9880;SDS011;4979;51.014;6.678;2023-12-04T09:20:27;15.93;;;9.77;;
9880;SDS011;4979;51.014;6.678;2023-12-04T09:22:53;16.70;;;9.52;;
9880;SDS011;4979;51.014;6.678;2023-12-04T09:25:19;15.07;;;9.50;;
9880;SDS011;4979;51.014;6.678;2023-12-04T09:27:44;14.43;;;8.68;;
9880;SDS011;4979;51.014;6.678;2023-12-04T09:30:11;14.45;;;9.07;;
9880;SDS011;4979;51.014;6.678;2023-12-04T09:32:37;13.77;;;8.02;;
9880;SDS011;4979;51.014;6.678;2023-12-04T09:35:02;12.88;;;8.02;;
9880;SDS011;4979;51.014;6.678;2023-12-04T09:37:28;14.95;;;9.07;;
9880;SDS011;4979;51.014;6.678;2023-12-04T09:39:54;15.50;;;9.45;;
9880;SDS011;4979;51.014;6.678;2023-12-04T09:42:19;16.23;;;9.02;;
9880;SDS011;4979;51.014;6.678;2023-12-04T09:44:46;11.63;;;7.28;;
9880;SDS011;4979;51.014;6.678;2023-12-04T09:47:14;16.02;;;8.80;;
9880;SDS011;4979;51.014;6.678;2023-12-04T09:49:46;13.77;;;8.75;;
9880;SDS011;4979;51.014;6.678;2023-12-04T09:52:13;18.42;;;11.32;;
9880;SDS011;4979;51.014;6.678;2023-12-04T09:54:39;14.82;;;7.72;;
9880;SDS011;4979;51.014;6.678;2023-12-04T09:57:06;17.63;;;8.73;;
9880;SDS011;4979;51.014;6.678;2023-12-04T09:59:31;14.50;;;9.23;;
9880;SDS011;4979;51.014;6.678;2023-12-04T10:01:57;14.65;;;9.32;;
9880;SDS011;4979;51.014;6.678;2023-12-04T10:04:23;12.25;;;8.43;;
9880;SDS011;4979;51.014;6.678;2023-12-04T10:06:50;15.98;;;9.65;;
9880;SDS011;4979;51.014;6.678;2023-12-04T10:09:17;12.77;;;7.85;;
9880;SDS011;4979;51.014;6.678;2023-12-04T10:11:44;15.00;;;8.52;;
9880;SDS011;4979;51.014;6.678;2023-12-04T10:14:19;12.35;;;8.55;;
9880;SDS011;4979;51.014;6.678;2023-12-04T10:16:46;17.00;;;8.48;;
9880;SDS011;4979;51.014;6.678;2023-12-04T10:19:22;13.68;;;8.35;;
9880;SDS011;4979;51.014;6.678;2023-12-04T10:21:54;13.90;;;9.18;;
9880;SDS011;4979;51.014;6.678;2023-12-04T10:24:34;12.60;;;8.38;;
9880;SDS011;4979;51.014;6.678;2023-12-04T10:27:01;17.30;;;9.20;;
9880;SDS011;4979;51.014;6.678;2023-12-04T10:29:30;13.13;;;8.65;;
9880;SDS011;4979;51.014;6.678;2023-12-04T10:32:09;14.88;;;9.75;;
9880;SDS011;4979;51.014;6.678;2023-12-04T10:34:35;13.32;;;8.70;;
9880;SDS011;4979;51.014;6.678;2023-12-04T10:37:02;13.80;;;9.13;;
9880;SDS011;4979;51.014;6.678;2023-12-04T10:39:29;12.45;;;7.13;;
9880;SDS011;4979;51.014;6.678;2023-12-04T10:41:59;11.73;;;7.53;;
9880;SDS011;4979;51.014;6.678;2023-12-04T10:44:27;15.15;;;8.32;;
9880;SDS011;4979;51.014;6.678;2023-12-04T10:46:54;13.10;;;8.70;;
9880;SDS011;4979;51.014;6.678;2023-12-04T10:49:23;15.80;;;9.38;;
9880;SDS011;4979;51.014;6.678;2023-12-04T10:51:56;12.63;;;8.43;;
9880;SDS011;4979;51.014;6.678;2023-12-04T10:54:24;16.27;;;8.20;;
9880;SDS011;4979;51.014;6.678;2023-12-04T10:56:51;13.13;;;8.57;;
9880;SDS011;4979;51.014;6.678;2023-12-04T10:59:18;11.07;;;7.57;;
9880;SDS011;4979;51.014;6.678;2023-12-04T11:01:50;12.57;;;8.10;;
9880;SDS011;4979;51.014;6.678;2023-12-04T11:04:19;11.10;;;8.07;;
9880;SDS011;4979;51.014;6.678;2023-12-04T11:06:47;14.77;;;9.63;;
9880;SDS011;4979;51.014;6.678;2023-12-04T11:09:16;12.95;;;8.32;;
9880;SDS011;4979;51.014;6.678;2023-12-04T11:11:46;11.95;;;8.38;;
9880;SDS011;4979;51.014;6.678;2023-12-04T11:14:16;12.43;;;8.70;;
9880;SDS011;4979;51.014;6.678;2023-12-04T11:16:47;12.10;;;7.45;;
9880;SDS011;4979;51.014;6.678;2023-12-04T11:22:08;13.80;;;7.68;;
9880;SDS011;4979;51.014;6.678;2023-12-04T11:24:35;12.75;;;8.48;;
9880;SDS011;4979;51.014;6.678;2023-12-04T11:27:01;13.30;;;8.82;;
9880;SDS011;4979;51.014;6.678;2023-12-04T11:29:28;13.05;;;8.20;;
9880;SDS011;4979;51.014;6.678;2023-12-04T11:31:54;13.88;;;8.88;;
9880;SDS011;4979;51.014;6.678;2023-12-04T11:34:20;14.10;;;9.77;;
9880;SDS011;4979;51.014;6.678;2023-12-04T11:36:46;14.27;;;8.85;;
9880;SDS011;4979;51.014;6.678;2023-12-04T11:39:12;15.82;;;9.15;;
9880;SDS011;4979;51.014;6.678;2023-12-04T11:41:38;13.02;;;9.07;;
9880;SDS011;4979;51.014;6.678;2023-12-04T11:44:11;17.15;;;9.38;;
9880;SDS011;4979;51.014;6.678;2023-12-04T11:46:54;14.90;;;9.55;;
9880;SDS011;4979;51.014;6.678;2023-12-04T11:49:26;16.02;;;10.15;;
9880;SDS011;4979;51.014;6.678;2023-12-04T11:51:55;15.65;;;9.70;;
9880;SDS011;4979;51.014;6.678;2023-12-04T11:54:23;14.30;;;9.88;;
9880;SDS011;4979;51.014;6.678;2023-12-04T11:59:39;17.00;;;9.02;;
9880;SDS011;4979;51.014;6.678;2023-12-04T12:02:07;15.27;;;9.50;;
9880;SDS011;4979;51.014;6.678;2023-12-04T12:04:34;20.70;;;10.20;;
9880;SDS011;4979;51.014;6.678;2023-12-04T12:07:00;16.50;;;9.38;;
9880;SDS011;4979;51.014;6.678;2023-12-04T12:09:30;28.42;;;18.85;;
9880;SDS011;4979;51.014;6.678;2023-12-04T12:12:02;17.13;;;10.15;;
9880;SDS011;4979;51.014;6.678;2023-12-04T12:14:29;19.42;;;10.00;;
9880;SDS011;4979;51.014;6.678;2023-12-04T12:16:55;15.48;;;9.35;;
9880;SDS011;4979;51.014;6.678;2023-12-04T12:19:23;19.23;;;11.80;;
9880;SDS011;4979;51.014;6.678;2023-12-04T12:21:48;17.15;;;10.25;;
9880;SDS011;4979;51.014;6.678;2023-12-04T12:24:16;16.15;;;9.60;;
9880;SDS011;4979;51.014;6.678;2023-12-04T12:26:42;29.35;;;13.18;;
9880;SDS011;4979;51.014;6.678;2023-12-04T12:29:08;16.95;;;10.48;;
9880;SDS011;4979;51.014;6.678;2023-12-04T12:31:34;21.17;;;12.68;;
9880;SDS011;4979;51.014;6.678;2023-12-04T12:34:00;20.65;;;12.23;;
9880;SDS011;4979;51.014;6.678;2023-12-04T12:36:25;30.35;;;19.08;;
9880;SDS011;4979;51.014;6.678;2023-12-04T12:38:51;32.92;;;18.85;;
9880;SDS011;4979;51.014;6.678;2023-12-04T12:41:17;47.25;;;24.33;;
9880;SDS011;4979;51.014;6.678;2023-12-04T12:43:42;24.83;;;13.90;;
9880;SDS011;4979;51.014;6.678;2023-12-04T12:46:09;21.50;;;13.23;;
9880;SDS011;4979;51.014;6.678;2023-12-04T12:48:35;28.70;;;17.17;;
9880;SDS011;4979;51.014;6.678;2023-12-04T12:51:04;18.13;;;11.23;;
9880;SDS011;4979;51.014;6.678;2023-12-04T12:53:33;13.35;;;8.23;;
9880;SDS011;4979;51.014;6.678;2023-12-04T12:56:00;22.45;;;12.68;;
9880;SDS011;4979;51.014;6.678;2023-12-04T12:58:26;15.77;;;9.73;;
9880;SDS011;4979;51.014;6.678;2023-12-04T13:00:53;19.15;;;11.55;;
9880;SDS011;4979;51.014;6.678;2023-12-04T13:03:19;20.20;;;11.60;;
9880;SDS011;4979;51.014;6.678;2023-12-04T13:05:46;25.83;;;14.65;;
9880;SDS011;4979;51.014;6.678;2023-12-04T13:08:13;16.17;;;10.32;;
9880;SDS011;4979;51.014;6.678;2023-12-04T13:10:40;21.15;;;12.93;;
9880;SDS011;4979;51.014;6.678;2023-12-04T13:13:15;15.32;;;9.13;;
9880;SDS011;4979;51.014;6.678;2023-12-04T13:15:41;23.60;;;13.15;;
9880;SDS011;4979;51.014;6.678;2023-12-04T13:18:07;18.58;;;11.63;;
9880;SDS011;4979;51.014;6.678;2023-12-04T13:20:33;19.65;;;12.10;;
9880;SDS011;4979;51.014;6.678;2023-12-04T13:23:04;14.20;;;8.73;;
9880;SDS011;4979;51.014;6.678;2023-12-04T13:25:30;11.00;;;7.80;;
9880;SDS011;4979;51.014;6.678;2023-12-04T13:27:57;12.27;;;7.30;;
9880;SDS011;4979;51.014;6.678;2023-12-04T13:30:22;13.38;;;9.07;;
9880;SDS011;4979;51.014;6.678;2023-12-04T13:32:48;16.38;;;10.50;;
9880;SDS011;4979;51.014;6.678;2023-12-04T13:35:15;14.18;;;8.90;;
9880;SDS011;4979;51.014;6.678;2023-12-04T13:37:41;13.50;;;8.60;;
9880;SDS011;4979;51.014;6.678;2023-12-04T13:40:06;11.65;;;7.97;;
9880;SDS011;4979;51.014;6.678;2023-12-04T13:42:33;13.52;;;8.95;;
9880;SDS011;4979;51.014;6.678;2023-12-04T13:45:18;15.38;;;8.32;;
9880;SDS011;4979;51.014;6.678;2023-12-04T13:47:47;12.27;;;8.98;;
9880;SDS011;4979;51.014;6.678;2023-12-04T13:50:14;12.73;;;7.85;;
9880;SDS011;4979;51.014;6.678;2023-12-04T13:52:40;14.27;;;8.55;;
9880;SDS011;4979;51.014;6.678;2023-12-04T13:55:07;12.20;;;7.65;;
9880;SDS011;4979;51.014;6.678;2023-12-04T13:57:43;9.00;;;6.88;;
9880;SDS011;4979;51.014;6.678;2023-12-04T14:00:25;11.32;;;7.55;;
9880;SDS011;4979;51.014;6.678;2023-12-04T14:02:51;11.15;;;7.68;;
9880;SDS011;4979;51.014;6.678;2023-12-04T14:05:29;11.57;;;7.57;;
9880;SDS011;4979;51.014;6.678;2023-12-04T14:07:55;11.75;;;7.90;;
9880;SDS011;4979;51.014;6.678;2023-12-04T14:10:26;13.13;;;8.70;;
9880;SDS011;4979;51.014;6.678;2023-12-04T14:12:54;14.90;;;8.20;;
9880;SDS011;4979;51.014;6.678;2023-12-04T14:15:20;12.98;;;7.65;;
9880;SDS011;4979;51.014;6.678;2023-12-04T14:17:46;12.93;;;8.15;;
9880;SDS011;4979;51.014;6.678;2023-12-04T14:20:11;17.85;;;8.77;;
9880;SDS011;4979;51.014;6.678;2023-12-04T14:22:38;12.80;;;7.50;;
9880;SDS011;4979;51.014;6.678;2023-12-04T14:25:07;14.13;;;8.80;;
9880;SDS011;4979;51.014;6.678;2023-12-04T14:27:33;18.30;;;11.23;;
9880;SDS011;4979;51.014;6.678;2023-12-04T14:29:59;23.23;;;11.02;;
9880;SDS011;4979;51.014;6.678;2023-12-04T14:32:24;16.23;;;8.82;;
9880;SDS011;4979;51.014;6.678;2023-12-04T14:34:50;28.63;;;14.25;;
9880;SDS011;4979;51.014;6.678;2023-12-04T14:37:16;13.55;;;8.57;;
9880;SDS011;4979;51.014;6.678;2023-12-04T14:39:41;17.98;;;9.65;;
9880;SDS011;4979;51.014;6.678;2023-12-04T14:42:07;21.67;;;9.35;;
9880;SDS011;4979;51.014;6.678;2023-12-04T14:44:32;15.32;;;8.77;;
9880;SDS011;4979;51.014;6.678;2023-12-04T14:46:58;19.75;;;9.55;;
9880;SDS011;4979;51.014;6.678;2023-12-04T14:49:24;16.73;;;9.32;;
9880;SDS011;4979;51.014;6.678;2023-12-04T14:51:50;12.73;;;8.10;;
9880;SDS011;4979;51.014;6.678;2023-12-04T14:54:16;15.02;;;8.35;;
9880;SDS011;4979;51.014;6.678;2023-12-04T14:57:01;12.65;;;8.15;;
9880;SDS011;4979;51.014;6.678;2023-12-04T14:59:45;9.63;;;6.07;;